Time;durP1;ratioP1;P1;durP2;ratioP2;P2;SDS_P1;SDS_P2;PMS_P1;PMS_P2;Temp;Humidity;BMP_temperature;BMP_pressure;BME280_temperature;BME280_humidity;BME280_pressure;Samples;Min_cycle;Max_cycle;Signal;HPM_P1;HPM_P2
2023/06/30 00:00:12;;;;;;;9.55;2.63;;;12.60;99.90;;;;;;5035290;28;20051;-70
2023/06/30 00:02:40;;;;;;;7.97;2.80;;;12.50;99.90;;;;;;5035646;28;20052;-71
2023/06/30 00:05:06;;;;;;;6.20;2.53;;;12.50;99.90;;;;;;5053810;28;20040;-71
2023/06/30 00:07:32;;;;;;;6.72;2.63;;;12.50;99.90;;;;;;5052979;28;20048;-71
2023/06/30 00:09:57;;;;;;;5.30;2.60;;;12.40;99.90;;;;;;5054027;28;20045;-71
2023/06/30 00:12:23;;;;;;;5.80;2.50;;;12.40;99.90;;;;;;5035940;28;20110;-70
2023/06/30 00:14:49;;;;;;;7.00;2.63;;;12.40;99.90;;;;;;5035256;28;20480;-71
2023/06/30 00:17:14;;;;;;;5.25;2.60;;;12.40;99.90;;;;;;5053983;28;20564;-71
2023/06/30 00:19:40;;;;;;;5.97;2.72;;;12.40;99.90;;;;;;5053288;28;20047;-71
2023/06/30 00:22:06;;;;;;;8.52;2.90;;;12.40;99.90;;;;;;5035427;28;20045;-70
2023/06/30 00:24:32;;;;;;;6.20;3.03;;;12.40;99.90;;;;;;5053355;28;20041;-71
2023/06/30 00:26:57;;;;;;;7.45;2.75;;;12.30;99.90;;;;;;5035425;28;20044;-71
2023/06/30 00:29:23;;;;;;;7.57;2.75;;;12.30;99.90;;;;;;5035706;28;20051;-70
2023/06/30 00:31:49;;;;;;;8.18;2.60;;;12.30;99.90;;;;;;5035191;28;20052;-71
2023/06/30 00:34:14;;;;;;;6.95;2.75;;;12.30;99.90;;;;;;5053059;28;20049;-71
2023/06/30 00:36:40;;;;;;;7.75;3.28;;;12.20;99.90;;;;;;5052879;28;20120;-71
2023/06/30 00:39:06;;;;;;;7.63;2.67;;;12.20;99.90;;;;;;5031743;28;20088;-71
2023/06/30 00:41:32;;;;;;;6.32;2.80;;;12.20;99.90;;;;;;5031377;28;20046;-71
2023/06/30 00:43:58;;;;;;;7.28;2.90;;;12.20;99.90;;;;;;5032413;28;20076;-70
2023/06/30 00:46:24;;;;;;;5.50;2.40;;;12.20;99.90;;;;;;5032236;28;20041;-70
2023/06/30 00:48:52;;;;;;;7.38;2.65;;;12.20;99.90;;;;;;5030752;28;20520;-70
2023/06/30 00:51:19;;;;;;;6.38;2.70;;;12.10;99.90;;;;;;5033184;28;20099;-70
2023/06/30 00:53:45;;;;;;;8.68;3.20;;;12.10;99.90;;;;;;5031571;28;20049;-70
2023/06/30 00:56:11;;;;;;;4.53;2.38;;;12.10;99.90;;;;;;5031498;28;20044;-70
2023/06/30 00:58:36;;;;;;;7.88;2.88;;;12.10;99.90;;;;;;5032725;28;20393;-71
2023/06/30 01:01:50;;;;;;;9.48;2.85;;;12.10;99.90;;;;;;5031687;28;20504;-71
2023/06/30 01:04:35;;;;;;;6.78;2.50;;;12.00;99.90;;;;;;5026804;28;20057;-70
2023/06/30 01:07:10;;;;;;;7.88;2.65;;;12.00;99.90;;;;;;5033003;28;20049;-71
2023/06/30 01:09:44;;;;;;;6.85;2.58;;;12.00;99.90;;;;;;5030634;28;20099;-71
2023/06/30 01:12:10;;;;;;;6.70;2.70;;;11.90;99.90;;;;;;5031651;28;20401;-71
2023/06/30 01:14:37;;;;;;;6.63;2.60;;;11.90;99.90;;;;;;5032518;28;20042;-71
2023/06/30 01:17:05;;;;;;;4.78;2.65;;;11.90;99.90;;;;;;5032352;28;20049;-70
2023/06/30 01:19:37;;;;;;;7.15;2.72;;;11.90;99.90;;;;;;5031571;28;20072;-71
2023/06/30 01:22:13;;;;;;;6.28;2.83;;;11.80;99.90;;;;;;5031309;28;20099;-71
2023/06/30 01:24:41;;;;;;;9.38;3.17;;;11.80;99.90;;;;;;5030704;28;20091;-70
2023/06/30 01:27:06;;;;;;;4.88;2.65;;;11.80;99.90;;;;;;5032735;28;20038;-70
2023/06/30 01:29:32;;;;;;;4.95;2.65;;;11.60;99.90;;;;;;5032575;28;20064;-71
2023/06/30 01:31:59;;;;;;;4.90;2.50;;;11.70;99.90;;;;;;5031682;28;20072;-70
2023/06/30 01:34:25;;;;;;;4.53;2.28;;;11.70;99.90;;;;;;5032643;28;20096;-71
2023/06/30 01:36:50;;;;;;;6.47;2.60;;;11.60;99.90;;;;;;5030221;28;20038;-70
2023/06/30 01:39:22;;;;;;;7.40;2.72;;;11.60;99.90;;;;;;5021780;28;20061;-71
2023/06/30 01:41:49;;;;;;;5.78;2.83;;;11.60;99.90;;;;;;5010809;28;20042;-71
2023/06/30 01:44:15;;;;;;;9.00;2.58;;;11.60;99.90;;;;;;5021408;28;20493;-70
2023/06/30 01:46:45;;;;;;;6.10;2.90;;;11.60;99.90;;;;;;5021202;28;20052;-71
2023/06/30 01:49:13;;;;;;;6.28;3.10;;;11.60;99.90;;;;;;5018865;28;20041;-71
2023/06/30 01:51:39;;;;;;;5.40;2.55;;;11.70;99.90;;;;;;5030146;28;20432;-71
2023/06/30 01:54:05;;;;;;;5.55;2.80;;;11.70;99.90;;;;;;5017049;28;20053;-70
2023/06/30 01:56:30;;;;;;;8.82;2.70;;;11.70;99.90;;;;;;5015373;28;20040;-70
2023/06/30 01:58:56;;;;;;;8.02;3.13;;;11.70;99.90;;;;;;5012008;28;20050;-70
2023/06/30 02:01:22;;;;;;;4.65;2.55;;;11.70;99.90;;;;;;5011207;28;20060;-70
2023/06/30 02:03:48;;;;;;;6.88;2.65;;;11.70;99.90;;;;;;5011912;28;20050;-70
2023/06/30 02:06:14;;;;;;;7.32;2.65;;;11.80;99.90;;;;;;5011703;28;20046;-70
2023/06/30 02:08:39;;;;;;;5.47;2.55;;;11.80;99.90;;;;;;5010845;28;20059;-70
2023/06/30 02:11:05;;;;;;;8.90;3.00;;;11.70;99.90;;;;;;5011656;28;20064;-70
2023/06/30 02:13:31;;;;;;;6.18;2.78;;;11.70;99.90;;;;;;5009980;28;20042;-70
2023/06/30 02:15:56;;;;;;;8.52;2.97;;;11.80;99.90;;;;;;5014157;28;20046;-70
2023/06/30 02:18:24;;;;;;;10.27;2.58;;;11.80;99.90;;;;;;5016365;28;20045;-70
2023/06/30 02:20:53;;;;;;;7.88;2.75;;;11.80;99.90;;;;;;5014276;28;20049;-71
2023/06/30 02:23:19;;;;;;;5.72;2.35;;;11.90;99.90;;;;;;5015922;28;20410;-70
2023/06/30 02:25:45;;;;;;;5.53;2.30;;;11.90;99.90;;;;;;5014832;28;20038;-70
2023/06/30 02:28:10;;;;;;;8.68;2.58;;;12.00;99.90;;;;;;5013829;28;20053;-71
2023/06/30 02:30:36;;;;;;;5.75;2.67;;;12.00;99.90;;;;;;5014937;28;20054;-71
2023/06/30 02:33:02;;;;;;;6.53;2.47;;;12.00;99.90;;;;;;5015364;28;20478;-70
2023/06/30 02:35:28;;;;;;;6.55;2.40;;;12.00;99.90;;;;;;5015842;28;20486;-71
2023/06/30 02:37:53;;;;;;;7.25;2.80;;;12.10;99.90;;;;;;5016666;28;20042;-70
2023/06/30 02:40:19;;;;;;;6.35;2.40;;;12.10;99.90;;;;;;5055407;28;20111;-70
2023/06/30 02:42:45;;;;;;;7.28;2.95;;;12.20;99.90;;;;;;5037458;28;20049;-70
2023/06/30 02:45:11;;;;;;;7.55;2.70;;;12.10;99.90;;;;;;5037240;28;20485;-71
2023/06/30 02:47:37;;;;;;;5.80;2.50;;;12.20;99.90;;;;;;5054403;28;20053;-71
2023/06/30 02:50:03;;;;;;;4.38;2.20;;;12.10;99.90;;;;;;5055291;28;20080;-70
2023/06/30 02:52:29;;;;;;;4.50;2.22;;;12.10;99.90;;;;;;5037366;28;20041;-70
2023/06/30 02:54:55;;;;;;;5.38;2.60;;;12.10;99.90;;;;;;5036335;28;20052;-71
2023/06/30 02:57:21;;;;;;;6.35;2.40;;;12.10;99.90;;;;;;5055426;28;20037;-71
2023/06/30 02:59:47;;;;;;;8.82;2.72;;;12.10;99.90;;;;;;5037199;28;20049;-71
2023/06/30 03:02:13;;;;;;;7.50;2.50;;;12.00;99.90;;;;;;5054364;28;20041;-70
2023/06/30 03:04:41;;;;;;;8.18;2.38;;;12.00;99.90;;;;;;5036893;28;20080;-71
2023/06/30 03:07:07;;;;;;;5.93;2.20;;;12.00;99.90;;;;;;5037070;28;20068;-71
2023/06/30 03:09:32;;;;;;;8.50;2.60;;;12.00;99.90;;;;;;5035732;28;20487;-70
2023/06/30 03:11:58;;;;;;;7.30;2.72;;;11.90;99.90;;;;;;5054834;28;20111;-70
2023/06/30 03:14:24;;;;;;;5.78;2.58;;;11.90;99.90;;;;;;5054623;28;20048;-70
2023/06/30 03:16:49;;;;;;;5.78;2.88;;;11.90;99.90;;;;;;5035963;28;20052;-70
2023/06/30 03:19:18;;;;;;;6.75;2.55;;;11.90;99.90;;;;;;5036491;28;20048;-70
2023/06/30 03:21:44;;;;;;;7.93;2.70;;;11.90;99.90;;;;;;5016979;28;20041;-70
2023/06/30 03:24:10;;;;;;;5.97;2.10;;;11.90;99.90;;;;;;5034221;28;20048;-70
2023/06/30 03:26:35;;;;;;;6.13;2.58;;;11.90;99.90;;;;;;5016089;28;20049;-70
2023/06/30 03:29:01;;;;;;;6.53;2.40;;;11.90;99.90;;;;;;5017128;28;20049;-70
2023/06/30 03:31:27;;;;;;;6.35;2.22;;;11.90;99.90;;;;;;5016377;28;20041;-70
2023/06/30 03:33:53;;;;;;;5.95;2.38;;;11.90;99.90;;;;;;5027874;28;20481;-70
2023/06/30 03:36:18;;;;;;;4.88;2.45;;;11.80;99.90;;;;;;5036350;28;20051;-70
2023/06/30 03:38:44;;;;;;;8.23;2.33;;;11.80;99.90;;;;;;5035823;28;20056;-70
2023/06/30 03:41:10;;;;;;;6.03;2.10;;;11.80;99.90;;;;;;5054642;28;20047;-70
2023/06/30 03:43:35;;;;;;;7.32;2.20;;;11.80;99.90;;;;;;5053840;28;20055;-70
2023/06/30 03:46:01;;;;;;;7.38;2.28;;;11.70;99.90;;;;;;5036328;28;20385;-70
2023/06/30 03:48:27;;;;;;;5.82;2.25;;;11.70;99.90;;;;;;5053270;28;20386;-70
2023/06/30 03:50:53;;;;;;;4.13;2.10;;;11.70;99.90;;;;;;5052816;28;20045;-70
2023/06/30 03:53:20;;;;;;;7.65;2.40;;;11.70;99.90;;;;;;5054130;28;20114;-70
2023/06/30 03:55:48;;;;;;;6.60;2.38;;;11.70;99.90;;;;;;5053850;28;20131;-70
2023/06/30 03:58:14;;;;;;;9.80;2.70;;;11.70;99.90;;;;;;5035083;28;20136;-70
2023/06/30 04:00:42;;;;;;;5.95;2.50;;;11.70;99.90;;;;;;5053653;28;20081;-71
2023/06/30 04:03:08;;;;;;;5.43;2.58;;;11.80;99.90;;;;;;5036394;28;20049;-70
2023/06/30 04:05:34;;;;;;;5.22;2.25;;;11.90;99.90;;;;;;5034412;28;20036;-70
2023/06/30 04:08:00;;;;;;;5.85;2.45;;;11.90;99.90;;;;;;5035876;28;20119;-70
2023/06/30 04:10:26;;;;;;;6.65;2.50;;;11.90;99.90;;;;;;5054005;28;20052;-71
2023/06/30 04:12:51;;;;;;;7.15;2.67;;;12.00;99.90;;;;;;5052816;28;20037;-70
2023/06/30 04:15:17;;;;;;;7.05;2.50;;;12.00;99.90;;;;;;5035588;28;20532;-71
2023/06/30 04:17:43;;;;;;;6.82;2.63;;;12.00;99.90;;;;;;5035754;28;20049;-71
2023/06/30 04:20:09;;;;;;;5.13;2.47;;;12.10;99.90;;;;;;5052798;28;20037;-71
2023/06/30 04:22:38;;;;;;;7.22;2.40;;;12.10;99.90;;;;;;5035651;28;20097;-70
2023/06/30 04:25:07;;;;;;;5.15;2.30;;;12.10;99.90;;;;;;5034883;28;20056;-70
2023/06/30 04:27:34;;;;;;;6.68;2.53;;;12.30;99.90;;;;;;5052230;28;20033;-70
2023/06/30 04:30:00;;;;;;;5.65;2.67;;;12.30;99.90;;;;;;5035544;28;20057;-70
2023/06/30 04:32:25;;;;;;;9.00;2.60;;;12.40;99.90;;;;;;5035530;28;20131;-71
2023/06/30 04:34:51;;;;;;;6.55;2.65;;;12.60;99.90;;;;;;5034659;28;20053;-70
2023/06/30 04:37:17;;;;;;;5.65;2.63;;;12.70;99.90;;;;;;5050903;28;20457;-70
2023/06/30 04:39:43;;;;;;;7.35;2.30;;;12.70;99.90;;;;;;5051711;28;20605;-70
2023/06/30 04:42:08;;;;;;;9.60;2.60;;;12.80;99.90;;;;;;5034419;28;20044;-71
2023/06/30 04:44:36;;;;;;;4.57;2.17;;;12.90;99.90;;;;;;5034275;28;20043;-72
2023/06/30 04:47:03;;;;;;;6.13;2.15;;;12.90;99.90;;;;;;5033416;28;20119;-78
2023/06/30 04:49:28;;;;;;;7.10;1.92;;;13.00;99.90;;;;;;5053138;28;20052;-72
2023/06/30 04:51:54;;;;;;;4.97;2.00;;;13.10;99.90;;;;;;5034872;28;20036;-74
2023/06/30 04:54:21;;;;;;;3.92;2.00;;;13.10;99.90;;;;;;5034398;28;20045;-75
2023/06/30 04:56:47;;;;;;;7.88;2.35;;;13.20;99.90;;;;;;5018612;28;20091;-73
2023/06/30 04:59:13;;;;;;;6.90;2.35;;;13.30;99.90;;;;;;5003822;28;20075;-72
2023/06/30 05:01:39;;;;;;;4.97;2.03;;;13.40;99.90;;;;;;5031701;28;20065;-73
2023/06/30 05:04:04;;;;;;;4.85;1.80;;;13.50;99.90;;;;;;5053644;28;20095;-79
2023/06/30 05:06:30;;;;;;;4.80;1.80;;;13.50;99.90;;;;;;5032615;28;20041;-82
2023/06/30 05:08:56;;;;;;;4.95;2.00;;;13.60;99.90;;;;;;5052093;28;20036;-76
2023/06/30 05:11:21;;;;;;;7.10;2.05;;;13.60;99.90;;;;;;5046662;28;20072;-73
2023/06/30 05:13:47;;;;;;;5.28;1.80;;;13.70;99.90;;;;;;5052139;28;20048;-74
2023/06/30 05:16:13;;;;;;;7.60;2.05;;;13.70;99.90;;;;;;5051639;28;20044;-75
2023/06/30 05:18:39;;;;;;;4.80;1.83;;;13.90;99.90;;;;;;5054015;28;20127;-77
2023/06/30 05:21:09;;;;;;;6.55;1.85;;;13.90;99.90;;;;;;5026485;28;20039;-75
2023/06/30 05:23:34;;;;;;;4.93;1.83;;;14.00;99.90;;;;;;5028102;28;20393;-75
2023/06/30 05:26:00;;;;;;;5.25;2.13;;;14.10;99.90;;;;;;5035441;28;20043;-74
2023/06/30 05:28:26;;;;;;;8.05;2.33;;;14.20;99.90;;;;;;5052182;28;20041;-72
2023/06/30 05:30:54;;;;;;;6.65;1.70;;;14.30;99.90;;;;;;5043861;28;20401;-75
2023/06/30 05:33:20;;;;;;;4.93;1.90;;;14.40;99.90;;;;;;5027451;28;20040;-73
2023/06/30 05:35:46;;;;;;;5.65;1.80;;;14.60;99.90;;;;;;5050921;28;20043;-73
2023/06/30 05:38:11;;;;;;;6.28;2.17;;;14.60;99.90;;;;;;5041126;28;20049;-72
2023/06/30 05:40:37;;;;;;;6.47;1.88;;;14.70;99.90;;;;;;5025756;28;20050;-73
2023/06/30 05:43:03;;;;;;;6.82;1.75;;;14.80;99.90;;;;;;5031428;28;20089;-73
2023/06/30 05:45:28;;;;;;;6.25;1.90;;;14.90;99.90;;;;;;5048223;28;20045;-74
2023/06/30 05:47:54;;;;;;;8.05;1.88;;;15.00;99.90;;;;;;5028130;28;20041;-72
2023/06/30 05:50:21;;;;;;;5.35;1.70;;;15.10;99.90;;;;;;5030599;28;20039;-73
2023/06/30 05:52:48;;;;;;;4.70;1.90;;;15.20;99.90;;;;;;5025003;28;20087;-74
2023/06/30 05:55:14;;;;;;;4.38;2.10;;;15.30;99.90;;;;;;5038458;28;20045;-74
2023/06/30 05:57:40;;;;;;;5.47;2.00;;;15.40;99.90;;;;;;5029146;28;20378;-73
2023/06/30 06:00:07;;;;;;;5.47;1.60;;;15.40;99.90;;;;;;5050936;28;20120;-74
2023/06/30 06:02:34;;;;;;;8.63;1.75;;;15.50;99.90;;;;;;5031801;28;20049;-73
2023/06/30 06:05:00;;;;;;;5.60;1.70;;;15.40;99.90;;;;;;5040283;28;20038;-74
2023/06/30 06:07:25;;;;;;;4.10;1.83;;;15.60;99.90;;;;;;5021558;28;20477;-74
2023/06/30 06:09:53;;;;;;;8.55;2.00;;;15.80;99.90;;;;;;5044385;28;20549;-74
2023/06/30 06:12:19;;;;;;;4.72;2.28;;;15.30;99.90;;;;;;5040000;28;20102;-74
2023/06/30 06:14:45;;;;;;;5.28;2.20;;;16.00;99.90;;;;;;5041211;28;20124;-74
2023/06/30 06:17:10;;;;;;;5.38;1.80;;;16.00;99.90;;;;;;5025958;28;20045;-75
2023/06/30 06:19:36;;;;;;;5.82;1.83;;;16.10;99.90;;;;;;5028959;28;20408;-75
2023/06/30 06:22:02;;;;;;;6.38;1.75;;;16.10;99.90;;;;;;5029571;28;20041;-74
2023/06/30 06:24:31;;;;;;;7.03;1.98;;;16.10;99.90;;;;;;5052529;28;20049;-74
2023/06/30 06:26:59;;;;;;;7.55;2.30;;;16.20;99.90;;;;;;5027144;28;20489;-74
2023/06/30 06:29:25;;;;;;;6.55;2.13;;;16.30;99.90;;;;;;5055354;28;20060;-75
2023/06/30 06:31:52;;;;;;;6.47;2.03;;;16.30;99.90;;;;;;5066718;28;20040;-75
2023/06/30 06:34:22;;;;;;;7.03;2.40;;;16.50;99.90;;;;;;5045139;28;20432;-75
2023/06/30 06:36:47;;;;;;;5.50;1.95;;;16.50;99.90;;;;;;5041516;28;20085;-75
2023/06/30 06:39:14;;;;;;;4.05;1.77;;;16.50;99.90;;;;;;5039865;28;20508;-75
2023/06/30 06:41:40;;;;;;;8.77;2.20;;;16.50;99.90;;;;;;5050272;28;20050;-75
2023/06/30 06:44:05;;;;;;;3.97;1.55;;;16.50;99.90;;;;;;5015959;28;20063;-75
2023/06/30 06:46:34;;;;;;;4.40;1.63;;;16.40;99.90;;;;;;5047356;28;20037;-73
2023/06/30 06:49:00;;;;;;;7.35;2.00;;;16.80;99.90;;;;;;5033762;28;20064;-73
2023/06/30 06:51:26;;;;;;;7.95;2.00;;;16.50;99.90;;;;;;5051608;28;20115;-73
2023/06/30 06:53:53;;;;;;;4.35;1.95;;;16.40;99.90;;;;;;5032918;28;20960;-73
2023/06/30 06:56:19;;;;;;;5.03;2.00;;;16.50;99.90;;;;;;5050433;28;20081;-73
2023/06/30 06:58:45;;;;;;;8.07;2.00;;;16.50;99.90;;;;;;5033658;28;20130;-73
2023/06/30 07:01:11;;;;;;;6.93;2.00;;;16.60;99.90;;;;;;5051380;28;20453;-72
2023/06/30 07:03:38;;;;;;;7.10;2.40;;;16.70;99.90;;;;;;5053842;28;20072;-72
2023/06/30 07:06:03;;;;;;;6.80;1.77;;;16.80;99.90;;;;;;5037502;28;20041;-73
2023/06/30 07:08:34;;;;;;;7.20;1.60;;;16.80;99.90;;;;;;5036547;28;20103;-73
2023/06/30 07:11:04;;;;;;;6.72;1.77;;;16.90;99.90;;;;;;5037356;28;20033;-73
2023/06/30 07:13:30;;;;;;;7.28;1.85;;;16.90;99.90;;;;;;5054530;28;20536;-72
2023/06/30 07:15:56;;;;;;;6.40;1.85;;;17.00;99.90;;;;;;5054308;28;20049;-72
2023/06/30 07:18:22;;;;;;;5.72;1.42;;;17.10;99.90;;;;;;5054986;28;20127;-73
2023/06/30 07:20:52;;;;;;;6.00;1.60;;;17.20;99.90;;;;;;5054279;28;20040;-73
2023/06/30 07:23:18;;;;;;;5.45;1.70;;;17.50;99.90;;;;;;5036347;28;20126;-73
2023/06/30 07:25:45;;;;;;;5.57;1.77;;;18.10;99.90;;;;;;5036908;28;20044;-73
2023/06/30 07:28:11;;;;;;;3.85;1.30;;;18.90;99.90;;;;;;5023956;28;20049;-73
2023/06/30 07:30:37;;;;;;;4.22;1.50;;;19.40;99.90;;;;;;5046236;28;20059;-73
2023/06/30 07:33:03;;;;;;;5.18;1.45;;;19.80;99.90;;;;;;5044381;28;20124;-72
2023/06/30 07:35:29;;;;;;;3.83;1.30;;;20.20;99.90;;;;;;5024596;28;20044;-73
2023/06/30 07:37:55;;;;;;;3.92;1.35;;;20.70;99.90;;;;;;5025332;28;20110;-74
2023/06/30 07:40:24;;;;;;;5.47;1.40;;;21.30;99.90;;;;;;5043811;28;20123;-74
2023/06/30 07:42:49;;;;;;;4.63;1.40;;;21.70;99.90;;;;;;5051891;28;20133;-75
2023/06/30 07:45:17;;;;;;;7.60;1.40;;;22.00;99.80;;;;;;5054173;28;20048;-74
2023/06/30 07:47:47;;;;;;;4.60;1.55;;;22.30;99.40;;;;;;5036008;28;20055;-75
2023/06/30 07:50:15;;;;;;;5.45;1.50;;;22.20;96.70;;;;;;5053540;28;20044;-77
2023/06/30 07:52:44;;;;;;;3.00;1.35;;;22.40;96.40;;;;;;5035629;28;20404;-75
2023/06/30 07:55:13;;;;;;;4.20;1.20;;;22.80;96.30;;;;;;5036442;28;20405;-73
2023/06/30 07:57:39;;;;;;;7.45;2.00;;;23.20;95.50;;;;;;5053264;28;20037;-75
2023/06/30 08:00:06;;;;;;;4.05;1.40;;;23.40;95.80;;;;;;5054406;28;20041;-75
2023/06/30 08:02:32;;;;;;;3.05;1.23;;;23.50;93.90;;;;;;5035978;28;20052;-73
2023/06/30 08:04:57;;;;;;;5.30;1.60;;;23.70;95.10;;;;;;5035109;28;20053;-74
2023/06/30 08:07:26;;;;;;;5.47;1.33;;;24.00;95.30;;;;;;5036275;28;20086;-73
2023/06/30 08:09:52;;;;;;;5.00;1.40;;;24.30;95.00;;;;;;5053589;28;20045;-72
2023/06/30 08:12:17;;;;;;;3.38;1.20;;;24.20;93.80;;;;;;5052638;28;20076;-73
2023/06/30 08:14:43;;;;;;;6.95;1.50;;;24.00;94.50;;;;;;5035363;28;20047;-75
2023/06/30 08:17:09;;;;;;;3.53;1.50;;;24.20;94.40;;;;;;5030149;28;20034;-72
2023/06/30 08:19:37;;;;;;;6.60;1.58;;;24.50;93.30;;;;;;5044650;28;20457;-73
2023/06/30 08:22:03;;;;;;;4.93;1.65;;;24.90;94.00;;;;;;5044036;28;20112;-74
2023/06/30 08:24:29;;;;;;;3.80;1.48;;;24.80;93.80;;;;;;5035870;28;20484;-76
2023/06/30 08:26:55;;;;;;;3.45;1.35;;;24.20;93.60;;;;;;5046150;28;20029;-75
2023/06/30 08:29:20;;;;;;;3.78;1.25;;;23.70;93.50;;;;;;5031582;28;20393;-76
2023/06/30 08:31:46;;;;;;;4.05;1.38;;;24.00;94.70;;;;;;5026773;28;20381;-76
2023/06/30 08:34:11;;;;;;;2.88;1.20;;;24.20;93.80;;;;;;5026760;28;20419;-75
2023/06/30 08:36:37;;;;;;;7.00;1.55;;;24.70;93.30;;;;;;5028535;28;20088;-74
2023/06/30 08:39:03;;;;;;;3.42;1.35;;;25.20;93.60;;;;;;5044967;28;20492;-76
2023/06/30 08:41:33;;;;;;;5.28;1.50;;;25.20;91.70;;;;;;5024650;28;20482;-75
2023/06/30 08:44:05;;;;;;;4.57;1.55;;;25.60;92.40;;;;;;5029004;28;20135;-76
2023/06/30 08:46:32;;;;;;;4.47;1.50;;;25.50;92.20;;;;;;5023948;28;20128;-75
2023/06/30 08:48:58;;;;;;;6.78;2.13;;;25.10;91.90;;;;;;5025457;28;20122;-76
2023/06/30 08:51:25;;;;;;;6.47;1.52;;;25.10;93.30;;;;;;5023109;28;20798;-77
2023/06/30 08:53:51;;;;;;;4.35;1.40;;;24.90;92.90;;;;;;5055594;28;20095;-76
2023/06/30 08:56:18;;;;;;;4.65;1.70;;;25.30;92.30;;;;;;5036152;28;20041;-81
2023/06/30 08:58:44;;;;;;;3.53;1.50;;;25.80;92.90;;;;;;5027792;28;20042;-75
2023/06/30 09:01:12;;;;;;;4.28;1.30;;;25.90;90.80;;;;;;5040070;28;20535;-73
2023/06/30 09:03:38;;;;;;;4.20;1.30;;;25.70;90.90;;;;;;5034052;28;20051;-74
2023/06/30 09:06:05;;;;;;;4.47;1.40;;;25.70;90.50;;;;;;5034346;28;20060;-73
2023/06/30 09:08:47;;;;;;;3.45;1.40;;;25.60;90.40;;;;;;5051767;28;20124;-74
2023/06/30 09:11:16;;;;;;;5.13;1.70;;;25.80;90.70;;;;;;5034163;28;20572;-73
2023/06/30 09:13:44;;;;;;;5.72;1.60;;;25.80;90.80;;;;;;5033503;28;20099;-75
2023/06/30 09:16:15;;;;;;;4.10;1.58;;;25.80;90.70;;;;;;5051343;28;20045;-73
2023/06/30 09:18:42;;;;;;;4.38;1.65;;;25.50;90.60;;;;;;5034259;28;20060;-72
2023/06/30 09:21:08;;;;;;;4.60;1.65;;;25.30;90.60;;;;;;5036328;28;20489;-73
2023/06/30 09:23:34;;;;;;;3.80;1.63;;;25.30;91.20;;;;;;5051755;28;20040;-73
2023/06/30 09:26:00;;;;;;;5.45;1.60;;;25.00;91.20;;;;;;5024646;28;20045;-69
2023/06/30 09:28:37;;;;;;;4.90;1.45;;;25.20;90.70;;;;;;5049995;28;20049;-73
2023/06/30 09:31:06;;;;;;;4.78;1.30;;;25.50;90.90;;;;;;5028029;28;20120;-72
2023/06/30 09:33:34;;;;;;;3.47;1.25;;;26.00;90.90;;;;;;5026107;28;20131;-72
2023/06/30 09:36:00;;;;;;;4.88;1.50;;;26.40;90.00;;;;;;5049522;28;20084;-70
2023/06/30 09:38:28;;;;;;;3.97;1.40;;;26.30;88.60;;;;;;5029133;28;20080;-71
2023/06/30 09:40:57;;;;;;;5.10;1.50;;;26.40;87.70;;;;;;5022938;28;20115;-72
2023/06/30 09:43:25;;;;;;;6.15;1.80;;;26.30;89.60;;;;;;5029546;28;20081;-73
2023/06/30 09:46:01;;;;;;;3.05;2.08;;;25.90;90.40;;;;;;5038901;28;20124;-76
2023/06/30 09:48:32;;;;;;;5.18;1.33;;;26.00;90.30;;;;;;5032483;28;20131;-73
2023/06/30 09:50:58;;;;;;;4.22;1.10;;;26.20;88.70;;;;;;5047904;28;20362;-74
2023/06/30 09:53:24;;;;;;;4.10;1.33;;;26.50;87.90;;;;;;5035387;28;20119;-77
2023/06/30 09:55:51;;;;;;;4.18;1.60;;;26.20;87.60;;;;;;5043952;28;20458;-72
2023/06/30 09:58:18;;;;;;;4.53;1.25;;;25.90;88.30;;;;;;5032129;28;20481;-72
2023/06/30 10:00:49;;;;;;;8.02;1.42;;;26.10;90.10;;;;;;5042747;28;20053;-77
2023/06/30 10:03:16;;;;;;;5.10;1.70;;;26.10;89.60;;;;;;5028513;28;20182;-71
2023/06/30 10:05:44;;;;;;;3.95;1.73;;;26.40;89.30;;;;;;5031815;28;20491;-71
2023/06/30 10:08:14;;;;;;;3.88;1.60;;;26.40;89.70;;;;;;5027177;28;20049;-75
2023/06/30 10:10:41;;;;;;;3.83;1.63;;;26.40;90.50;;;;;;5038492;28;20045;-75
2023/06/30 10:13:08;;;;;;;4.65;1.60;;;26.30;89.70;;;;;;5059572;28;20036;-72
2023/06/30 10:15:35;;;;;;;4.60;1.48;;;25.90;90.00;;;;;;5050805;28;20041;-73
2023/06/30 10:18:02;;;;;;;3.80;1.20;;;25.70;90.30;;;;;;5029636;28;20038;-72
2023/06/30 10:20:29;;;;;;;5.78;1.77;;;25.80;90.60;;;;;;5051510;28;20041;-71
2023/06/30 10:22:56;;;;;;;4.53;2.25;;;26.00;90.60;;;;;;5033705;28;20052;-76
2023/06/30 10:25:25;;;;;;;3.35;1.60;;;25.60;90.60;;;;;;5049805;28;20084;-74
2023/06/30 10:27:53;;;;;;;5.35;1.73;;;25.30;90.40;;;;;;5051470;28;20485;-74
2023/06/30 10:30:19;;;;;;;4.03;1.60;;;24.80;90.20;;;;;;5051430;28;20037;-73
2023/06/30 10:32:45;;;;;;;4.35;1.70;;;24.40;90.80;;;;;;5050489;28;20082;-77
2023/06/30 10:35:14;;;;;;;4.78;2.05;;;24.50;90.50;;;;;;5035780;28;20037;-76
2023/06/30 10:37:40;;;;;;;4.28;1.40;;;24.80;90.60;;;;;;5036796;28;20127;-74
2023/06/30 10:40:26;;;;;;;4.15;1.60;;;25.10;90.70;;;;;;5054641;28;20248;-72
2023/06/30 10:42:54;;;;;;;6.05;1.77;;;25.20;90.00;;;;;;5035699;28;20374;-73
2023/06/30 10:45:32;;;;;;;6.93;2.30;;;24.90;90.70;;;;;;5033929;28;20045;-72
2023/06/30 10:48:12;;;;;;;4.90;1.80;;;25.00;91.70;;;;;;5058005;28;20044;-72
2023/06/30 10:50:42;;;;;;;3.60;1.63;;;25.40;91.50;;;;;;5022198;28;20029;-74
2023/06/30 10:53:18;;;;;;;6.60;2.13;;;25.70;90.70;;;;;;5036188;28;20115;-73
2023/06/30 10:55:44;;;;;;;7.22;1.85;;;25.90;89.70;;;;;;5055354;28;20048;-73
2023/06/30 10:58:10;;;;;;;3.97;1.85;;;26.10;88.20;;;;;;5037452;28;20056;-72
2023/06/30 11:00:36;;;;;;;3.65;1.60;;;25.90;87.60;;;;;;5054309;28;20037;-72
2023/06/30 11:03:05;;;;;;;4.05;1.50;;;25.80;88.80;;;;;;5037225;28;20053;-72
2023/06/30 11:05:33;;;;;;;5.65;1.73;;;25.40;89.80;;;;;;5055323;28;20186;-72
2023/06/30 11:08:02;;;;;;;3.67;1.40;;;25.50;90.40;;;;;;5036722;28;20099;-72
2023/06/30 11:10:36;;;;;;;3.50;1.52;;;25.70;87.70;;;;;;5055293;28;20041;-72
2023/06/30 11:13:09;;;;;;;4.97;2.10;;;25.40;90.10;;;;;;5037499;28;20473;-72
2023/06/30 11:15:47;;;;;;;4.05;1.80;;;25.40;90.90;;;;;;5054024;28;20045;-72
2023/06/30 11:18:18;;;;;;;2.78;1.10;;;25.10;89.10;;;;;;5037157;28;20055;-72
2023/06/30 11:21:07;;;;;;;2.53;1.08;;;25.00;83.20;;;;;;5035708;28;20063;-73
2023/06/30 11:23:37;;;;;;;3.45;1.45;;;25.20;84.60;;;;;;5026691;28;20136;-72
2023/06/30 11:26:19;;;;;;;5.13;1.40;;;25.20;85.30;;;;;;5036898;28;20488;-72
2023/06/30 11:28:50;;;;;;;3.70;1.50;;;25.30;85.90;;;;;;5035451;28;20103;-73
2023/06/30 11:31:17;;;;;;;3.05;1.30;;;25.50;85.30;;;;;;5054969;28;20041;-72
2023/06/30 11:33:44;;;;;;;3.35;1.20;;;25.40;83.00;;;;;;5036411;28;20049;-73
2023/06/30 11:36:17;;;;;;;3.67;1.20;;;25.40;83.90;;;;;;5054071;28;20041;-73
2023/06/30 11:38:46;;;;;;;3.85;1.67;;;25.20;85.30;;;;;;5054392;28;20075;-73
2023/06/30 11:41:22;;;;;;;2.97;1.10;;;25.50;84.80;;;;;;5036387;28;20132;-73
2023/06/30 11:43:58;;;;;;;2.78;1.20;;;25.40;82.60;;;;;;5035565;28;20041;-72
2023/06/30 11:46:23;;;;;;;4.30;0.98;;;25.30;80.10;;;;;;5036714;28;20068;-72
2023/06/30 11:48:50;;;;;;;3.97;1.50;;;25.20;80.30;;;;;;5034903;28;20476;-72
2023/06/30 11:51:17;;;;;;;2.22;1.13;;;25.30;82.80;;;;;;5036861;28;20122;-72
2023/06/30 11:53:46;;;;;;;3.30;1.15;;;25.40;81.10;;;;;;5035755;28;20095;-72
2023/06/30 11:56:11;;;;;;;3.80;1.30;;;25.40;82.90;;;;;;5035151;28;20029;-72
2023/06/30 11:58:37;;;;;;;4.57;1.60;;;25.40;82.20;;;;;;5053587;28;20503;-72
2023/06/30 12:01:04;;;;;;;3.67;1.20;;;25.50;84.90;;;;;;5036517;28;20400;-72
2023/06/30 12:03:30;;;;;;;4.03;1.55;;;25.90;80.90;;;;;;5052419;28;20470;-73
2023/06/30 12:05:56;;;;;;;7.25;1.65;;;26.00;82.80;;;;;;5036152;28;20048;-73
2023/06/30 12:08:24;;;;;;;2.80;1.40;;;26.00;84.90;;;;;;5036157;28;20076;-72
2023/06/30 12:10:50;;;;;;;3.55;1.45;;;26.00;82.00;;;;;;5035156;28;20127;-72
2023/06/30 12:13:17;;;;;;;3.25;1.30;;;26.00;82.60;;;;;;5035993;28;20127;-71
2023/06/30 12:15:43;;;;;;;5.10;1.40;;;26.10;81.80;;;;;;5054209;28;20110;-72
2023/06/30 12:18:09;;;;;;;3.90;1.30;;;26.20;82.20;;;;;;5053200;28;20037;-72
2023/06/30 12:20:39;;;;;;;4.75;1.60;;;26.00;84.00;;;;;;5056236;28;20037;-73
2023/06/30 12:23:06;;;;;;;5.20;1.58;;;26.00;83.80;;;;;;5038122;28;20048;-73
2023/06/30 12:25:33;;;;;;;4.57;1.63;;;25.90;85.10;;;;;;5052862;28;20045;-73
2023/06/30 12:28:02;;;;;;;2.95;1.60;;;25.90;85.90;;;;;;5035668;28;20183;-73
2023/06/30 12:30:28;;;;;;;4.10;1.90;;;26.00;85.60;;;;;;5035881;28;20052;-73
2023/06/30 12:32:58;;;;;;;5.32;1.80;;;26.00;85.00;;;;;;5034539;28;20045;-73
2023/06/30 12:35:42;;;;;;;5.55;1.90;;;25.50;85.60;;;;;;5035557;28;20041;-73
2023/06/30 12:38:09;;;;;;;5.03;2.10;;;25.30;86.80;;;;;;5034769;28;20465;-73
2023/06/30 12:40:35;;;;;;;4.93;1.52;;;25.20;88.10;;;;;;5052503;28;20041;-74
2023/06/30 12:43:00;;;;;;;4.90;2.17;;;25.20;87.20;;;;;;5053602;28;20142;-73
2023/06/30 12:45:26;;;;;;;5.63;2.20;;;25.10;86.20;;;;;;5052739;28;20049;-72
2023/06/30 12:47:52;;;;;;;4.40;2.30;;;25.30;88.00;;;;;;5034875;28;20044;-72